createdAt,value
2018-08-06T00:00:47.962Z,85.79
2018-08-06T00:01:48.009Z,85.88
2018-08-06T00:02:48.041Z,85.98
2018-08-06T00:03:48.078Z,85.79
2018-08-06T00:04:48.117Z,85.50
2018-08-06T00:05:48.156Z,85.41
2018-08-06T00:06:48.195Z,85.21
2018-08-06T00:07:48.233Z,84.92
2018-08-06T00:08:48.274Z,85.02
2018-08-06T00:09:48.314Z,84.35
2018-08-06T00:10:48.350Z,83.97
2018-08-06T00:11:48.390Z,84.35
2018-08-06T00:12:48.425Z,83.78
2018-08-06T00:13:48.466Z,83.97
2018-08-06T00:14:48.505Z,83.97
2018-08-06T00:15:48.544Z,83.11
2018-08-06T00:16:48.582Z,83.97
2018-08-06T00:17:48.621Z,83.59
2018-08-06T00:18:48.659Z,83.49
2018-08-06T00:19:48.699Z,83.54
2018-08-06T00:20:48.737Z,82.82
2018-08-06T00:21:48.786Z,82.49
2018-08-06T00:22:48.812Z,82.11
2018-08-06T00:23:48.864Z,82.01
2018-08-06T00:24:48.926Z,81.44
2018-08-06T00:25:48.928Z,81.05
2018-08-06T00:26:48.968Z,80.29
2018-08-06T00:27:49.010Z,79.52
2018-08-06T00:28:49.043Z,79.62
2018-08-06T00:29:49.083Z,79.91
2018-08-06T00:30:49.121Z,79.24
2018-08-06T00:31:49.161Z,79.81
2018-08-06T00:32:49.199Z,79.14
2018-08-06T00:33:49.239Z,79.14
2018-08-06T00:34:49.276Z,78.63
2018-08-06T00:35:49.317Z,77.76
2018-08-06T00:36:49.357Z,77.95
2018-08-06T00:37:49.393Z,77.76
2018-08-06T00:38:49.431Z,77.00
2018-08-06T00:39:49.471Z,76.81
2018-08-06T00:40:49.509Z,75.95
2018-08-06T00:41:49.544Z,75.47
2018-08-06T00:42:49.586Z,75.76
2018-08-06T00:43:49.625Z,74.13
2018-08-06T00:44:49.662Z,74.80
2018-08-06T00:45:49.701Z,75.56
2018-08-06T00:46:49.739Z,74.90
2018-08-06T00:47:49.778Z,75.09
2018-08-06T00:48:49.815Z,74.41
2018-08-06T00:49:49.856Z,74.90
2018-08-06T00:50:49.894Z,73.17
2018-08-06T00:51:49.935Z,74.51
2018-08-06T00:52:49.969Z,73.94
2018-08-06T00:53:50.008Z,74.04
2018-08-06T00:54:50.047Z,72.31
2018-08-06T00:55:50.090Z,73.46
2018-08-06T00:56:50.125Z,75.09
2018-08-06T00:57:50.161Z,75.85
2018-08-06T00:58:50.201Z,76.04
2018-08-06T00:59:50.239Z,76.90
2018-08-06T01:00:50.276Z,77.19
2018-08-06T01:01:50.315Z,77.19
2018-08-06T01:02:50.354Z,77.38
2018-08-06T01:03:50.392Z,77.19
2018-08-06T01:04:50.430Z,76.62
2018-08-06T01:05:50.469Z,76.14
2018-08-06T01:06:50.514Z,76.23
2018-08-06T01:07:50.546Z,75.76
2018-08-06T01:08:50.585Z,75.37
2018-08-06T01:09:50.620Z,75.09
2018-08-06T01:10:50.670Z,75.47
2018-08-06T01:11:50.699Z,74.32
2018-08-06T01:12:50.736Z,74.41
2018-08-06T01:13:50.778Z,75.18
2018-08-06T01:14:50.816Z,75.09
2018-08-06T01:15:50.855Z,74.99
2018-08-06T01:16:50.892Z,74.41
2018-08-06T01:17:50.930Z,73.46
2018-08-06T01:18:50.978Z,73.46
2018-08-06T01:19:51.008Z,73.94
2018-08-06T01:20:51.043Z,73.08
2018-08-06T01:21:51.086Z,73.08
2018-08-06T01:22:51.126Z,73.27
2018-08-06T01:23:51.163Z,73.27
2018-08-06T01:24:51.198Z,73.65
2018-08-06T01:25:51.235Z,72.98
2018-08-06T01:26:51.276Z,72.41
2018-08-06T01:27:51.314Z,72.18
2018-08-06T01:28:51.351Z,71.70
2018-08-06T01:29:51.389Z,71.13
2018-08-06T01:30:51.427Z,70.84
2018-08-06T01:31:51.466Z,70.75
2018-08-06T01:32:51.503Z,70.94
2018-08-06T01:33:51.542Z,71.07
2018-08-06T01:34:51.583Z,71.32
2018-08-06T01:35:51.621Z,71.03
2018-08-06T01:36:51.655Z,69.98
2018-08-06T01:37:51.694Z,69.98
2018-08-06T01:38:51.733Z,69.21
2018-08-06T01:39:51.771Z,69.12
2018-08-06T01:40:51.827Z,68.74
2018-08-06T01:41:51.847Z,69.31
2018-08-06T01:42:51.886Z,69.50
2018-08-06T01:43:51.926Z,70.07
2018-08-06T01:44:51.961Z,69.89
2018-08-06T01:45:52.056Z,71.22
2018-08-06T01:46:52.041Z,71.89
2018-08-06T01:47:52.079Z,71.99
2018-08-06T01:48:52.115Z,72.94
2018-08-06T01:49:52.153Z,72.75
2018-08-06T01:50:52.191Z,72.08
2018-08-06T01:51:52.237Z,71.70
2018-08-06T01:52:52.267Z,71.61
2018-08-06T01:53:52.308Z,70.56
2018-08-06T01:54:52.344Z,70.75
2018-08-06T01:55:52.383Z,70.94
2018-08-06T01:56:52.420Z,71.03
2018-08-06T01:57:52.457Z,71.32
2018-08-06T01:58:52.499Z,69.89
2018-08-06T01:59:52.534Z,70.84
2018-08-06T02:00:52.575Z,70.07
2018-08-06T02:01:52.609Z,70.75
2018-08-06T02:02:52.652Z,71.51
2018-08-06T02:03:52.688Z,71.89
2018-08-06T02:04:52.724Z,71.70
2018-08-06T02:05:52.763Z,70.75
2018-08-06T02:06:52.800Z,70.97
2018-08-06T02:07:52.841Z,70.75
2018-08-06T02:08:52.876Z,69.89
2018-08-06T02:09:52.915Z,70.27
2018-08-06T02:10:52.952Z,69.79
2018-08-06T02:11:52.996Z,69.79
2018-08-06T02:12:53.029Z,69.79
2018-08-06T02:13:53.068Z,69.02
2018-08-06T02:14:53.107Z,69.02
2018-08-06T02:15:53.146Z,68.35
2018-08-06T02:16:53.182Z,68.45
2018-08-06T02:17:53.228Z,67.49
2018-08-06T02:18:53.265Z,67.59
2018-08-06T02:19:53.297Z,67.30
2018-08-06T02:20:53.334Z,66.54
2018-08-06T02:21:53.373Z,66.16
2018-08-06T02:22:53.411Z,65.77
2018-08-06T02:23:53.448Z,65.58
2018-08-06T02:24:53.494Z,65.30
2018-08-06T02:25:53.529Z,64.50
2018-08-06T02:26:53.566Z,64.31
2018-08-06T02:27:53.602Z,64.12
2018-08-06T02:28:53.642Z,64.40
2018-08-06T02:29:53.675Z,64.40
2018-08-06T02:30:53.713Z,63.35
2018-08-06T02:31:53.751Z,62.87
2018-08-06T02:32:53.798Z,62.68
2018-08-06T02:33:53.829Z,62.59
2018-08-06T02:34:53.868Z,62.59
2018-08-06T02:35:53.904Z,62.30
2018-08-06T02:36:53.943Z,61.82
2018-08-06T02:37:53.978Z,62.30
2018-08-06T02:38:54.019Z,61.82
2018-08-06T02:39:54.056Z,61.72
2018-08-06T02:40:54.092Z,60.96
2018-08-06T02:41:54.136Z,61.35
2018-08-06T02:42:54.168Z,60.07
2018-08-06T02:43:54.208Z,60.07
2018-08-06T02:44:54.244Z,58.73
2018-08-06T02:45:54.282Z,58.83
2018-08-06T02:46:54.320Z,57.40
2018-08-06T02:47:54.358Z,57.11
2018-08-06T02:48:54.405Z,57.02
2018-08-06T02:49:54.438Z,57.02
2018-08-06T02:50:54.471Z,57.87
2018-08-06T02:51:54.511Z,57.21
2018-08-06T02:52:54.547Z,56.92
2018-08-06T02:53:54.587Z,56.45
2018-08-06T02:54:54.624Z,56.45
2018-08-06T02:55:54.662Z,55.87
2018-08-06T02:56:54.698Z,56.73
2018-08-06T02:57:54.737Z,56.82
2018-08-06T02:58:54.772Z,56.92
2018-08-06T02:59:54.814Z,57.02
2018-08-06T03:00:54.848Z,57.02
2018-08-06T03:01:54.888Z,57.02
2018-08-06T03:02:54.929Z,56.73
2018-08-06T03:03:54.964Z,56.82
2018-08-06T03:04:54.999Z,57.59
2018-08-06T03:05:55.040Z,56.45
2018-08-06T03:06:55.076Z,55.77
2018-08-06T03:07:55.115Z,54.91
2018-08-06T03:08:55.155Z,54.72
2018-08-06T03:09:55.211Z,55.30
2018-08-06T03:10:55.228Z,55.01
2018-08-06T03:11:55.365Z,55.11
2018-08-06T03:12:55.302Z,54.72
2018-08-06T03:13:55.340Z,54.82
2018-08-06T03:14:55.379Z,55.40
2018-08-06T03:15:55.423Z,54.82
2018-08-06T03:16:55.461Z,55.20
2018-08-06T03:17:55.491Z,54.25
2018-08-06T03:18:55.530Z,53.86
2018-08-06T03:19:55.566Z,53.96
2018-08-06T03:20:55.606Z,53.86
2018-08-06T03:21:55.642Z,53.39
2018-08-06T03:22:55.681Z,53.29
2018-08-06T03:23:55.717Z,53.49
2018-08-06T03:24:55.755Z,54.53
2018-08-06T03:25:55.793Z,55.01
2018-08-06T03:26:55.838Z,56.45
2018-08-06T03:27:55.870Z,56.82
2018-08-06T03:28:55.913Z,57.87
2018-08-06T03:29:55.942Z,57.78
2018-08-06T03:30:55.983Z,57.68
2018-08-06T03:31:56.020Z,58.16
2018-08-06T03:32:56.056Z,57.97
2018-08-06T03:33:56.094Z,58.36
2018-08-06T03:34:56.131Z,57.50
2018-08-06T03:35:56.169Z,56.92
2018-08-06T03:36:56.206Z,56.45
2018-08-06T03:37:56.248Z,55.30
2018-08-06T03:38:56.281Z,55.30
2018-08-06T03:39:56.320Z,54.82
2018-08-06T03:40:56.355Z,55.30
2018-08-06T03:41:56.395Z,54.44
2018-08-06T03:42:56.435Z,53.20
2018-08-06T03:43:56.470Z,53.00
2018-08-06T03:44:56.508Z,52.72
2018-08-06T03:45:56.546Z,52.62
2018-08-06T03:46:56.583Z,52.72
2018-08-06T03:47:56.620Z,52.24
2018-08-06T03:48:56.656Z,51.67
2018-08-06T03:49:56.695Z,51.86
2018-08-06T03:50:56.737Z,51.35
2018-08-06T03:51:56.772Z,50.69
2018-08-06T03:52:56.808Z,49.83
2018-08-06T03:53:56.846Z,49.54
2018-08-06T03:54:56.884Z,49.73
2018-08-06T03:55:56.921Z,49.54
2018-08-06T03:56:56.959Z,49.64
2018-08-06T03:57:56.997Z,49.73
2018-08-06T03:58:57.034Z,49.64
2018-08-06T03:59:57.069Z,49.07
2018-08-06T04:00:57.112Z,48.68
2018-08-06T04:01:57.144Z,48.30
2018-08-06T04:02:57.184Z,48.68
2018-08-06T04:03:57.227Z,49.35
2018-08-06T04:04:57.259Z,48.49
2018-08-06T04:05:57.294Z,48.39
2018-08-06T04:06:57.334Z,48.11
2018-08-06T04:07:57.369Z,48.30
2018-08-06T04:08:57.406Z,48.21
2018-08-06T04:09:57.444Z,48.59
2018-08-06T04:10:57.483Z,48.39
2018-08-06T04:11:57.520Z,48.21
2018-08-06T04:12:57.557Z,47.92
2018-08-06T04:13:57.594Z,47.82
2018-08-06T04:14:57.632Z,47.54
2018-08-06T04:15:57.669Z,46.58
2018-08-06T04:16:57.707Z,46.87
2018-08-06T04:17:57.746Z,46.48
2018-08-06T04:18:57.782Z,47.82
2018-08-06T04:19:57.820Z,47.44
2018-08-06T04:20:57.859Z,48.02
2018-08-06T04:21:57.895Z,47.34
2018-08-06T04:22:57.932Z,47.73
2018-08-06T04:23:57.971Z,47.54
2018-08-06T04:24:58.016Z,48.21
2018-08-06T04:25:58.044Z,49.16
2018-08-06T04:26:58.082Z,50.88
2018-08-06T04:27:58.121Z,51.26
2018-08-06T04:28:58.158Z,52.03
2018-08-06T04:29:58.195Z,50.98
2018-08-06T04:30:58.234Z,50.31
2018-08-06T04:31:58.271Z,50.04
2018-08-06T04:32:58.352Z,50.81
2018-08-06T04:33:58.345Z,50.71
2018-08-06T04:34:58.390Z,51.00
2018-08-06T04:35:58.421Z,50.49
2018-08-06T04:36:58.456Z,50.02
2018-08-06T04:37:58.495Z,50.81
2018-08-06T04:38:58.532Z,49.35
2018-08-06T04:39:58.569Z,49.26
2018-08-06T04:40:58.615Z,49.16
2018-08-06T04:41:58.654Z,48.88
2018-08-06T04:42:58.690Z,48.88
2018-08-06T04:43:58.719Z,49.35
2018-08-06T04:44:58.757Z,49.47
2018-08-06T04:45:58.849Z,49.38
2018-08-06T04:46:58.841Z,49.66
2018-08-06T04:47:58.871Z,49.38
2018-08-06T04:48:58.909Z,49.76
2018-08-06T04:49:58.949Z,49.66
2018-08-06T04:50:58.982Z,49.09
2018-08-06T04:51:59.030Z,49.85
2018-08-06T04:52:59.056Z,49.95
2018-08-06T04:53:59.096Z,51.00
2018-08-06T04:54:59.135Z,51.00
2018-08-06T04:55:59.272Z,51.76
2018-08-06T04:56:59.213Z,52.53
2018-08-06T04:57:59.251Z,52.62
2018-08-06T04:58:59.284Z,52.72
2018-08-06T04:59:59.320Z,52.91
2018-08-06T05:00:59.360Z,52.81
2018-08-06T05:01:59.400Z,53.67
2018-08-06T05:02:59.435Z,53.58
2018-08-06T05:03:59.470Z,53.49
2018-08-06T05:04:59.510Z,53.58
2018-08-06T05:05:59.547Z,53.67
2018-08-06T05:06:59.617Z,53.51
2018-08-06T05:07:59.625Z,54.66
2018-08-06T05:08:59.657Z,54.94
2018-08-06T05:09:59.695Z,54.75
2018-08-06T05:10:59.740Z,55.13
2018-08-06T05:11:59.772Z,56.67
2018-08-06T05:12:59.808Z,56.67
2018-08-06T05:13:59.855Z,57.04
2018-08-06T05:14:59.885Z,58.00
2018-08-06T05:15:59.922Z,58.86
2018-08-06T05:16:59.963Z,60.49
2018-08-06T05:17:59.998Z,60.68
2018-08-06T05:19:00.035Z,61.72
2018-08-06T05:20:00.074Z,61.85
2018-08-06T05:21:00.111Z,62.24
2018-08-06T05:22:00.158Z,63.10
2018-08-06T05:23:00.190Z,64.53
2018-08-06T05:24:00.226Z,64.91
2018-08-06T05:25:00.260Z,65.58
2018-08-06T05:26:00.300Z,65.71
2018-08-06T05:27:00.339Z,67.34
2018-08-06T05:28:00.376Z,68.68
2018-08-06T05:29:00.416Z,69.54
2018-08-06T05:30:00.452Z,69.35
2018-08-06T05:31:00.495Z,70.30
2018-08-06T05:32:00.530Z,70.68
2018-08-06T05:33:00.566Z,71.58
2018-08-06T05:34:00.606Z,71.58
2018-08-06T05:35:00.641Z,69.76
2018-08-06T05:36:00.683Z,71.20
2018-08-06T05:37:00.716Z,71.30
2018-08-06T05:38:00.759Z,71.30
2018-08-06T05:39:00.795Z,74.26
2018-08-06T05:40:00.905Z,73.79
2018-08-06T05:41:00.868Z,74.55
2018-08-06T05:42:00.906Z,75.60
2018-08-06T05:43:00.945Z,75.31
2018-08-06T05:44:00.988Z,75.73
2018-08-06T05:45:01.020Z,75.64
2018-08-06T05:46:01.060Z,77.65
2018-08-06T05:47:01.099Z,78.32
2018-08-06T05:48:01.138Z,79.37
2018-08-06T05:49:01.175Z,79.85
2018-08-06T05:50:01.217Z,80.47
2018-08-06T05:51:01.253Z,81.23
2018-08-06T05:52:01.290Z,82.57
2018-08-06T05:53:01.333Z,83.44
2018-08-06T05:54:01.368Z,84.11
2018-08-06T05:55:01.508Z,85.06
2018-08-06T05:56:01.445Z,86.21
2018-08-06T05:57:01.482Z,87.50
2018-08-06T05:58:01.519Z,87.50
2018-08-06T05:59:01.561Z,87.50
2018-08-06T06:00:01.600Z,88.27
2018-08-06T06:01:01.637Z,88.46
2018-08-06T06:02:01.676Z,88.79
2018-08-06T06:03:01.717Z,89.27
2018-08-06T06:04:01.756Z,88.12
2018-08-06T06:05:01.792Z,89.75
2018-08-06T06:06:01.832Z,89.85
2018-08-06T06:07:01.872Z,89.94
2018-08-06T06:08:01.910Z,88.60
2018-08-06T06:09:01.947Z,89.75
2018-08-06T06:10:01.992Z,89.65
2018-08-06T06:11:02.026Z,88.60
2018-08-06T06:12:02.063Z,89.75
2018-08-06T06:13:02.102Z,90.23
2018-08-06T06:14:02.141Z,90.47
2018-08-06T06:15:02.193Z,91.00
2018-08-06T06:16:02.221Z,91.48
2018-08-06T06:17:02.260Z,91.05
2018-08-06T06:18:02.379Z,91.24
2018-08-06T06:19:02.388Z,91.42
2018-08-06T06:20:02.376Z,92.58
2018-08-06T06:21:02.418Z,92.29
2018-08-06T06:22:02.460Z,92.96
2018-08-06T06:23:02.496Z,94.02
2018-08-06T06:24:02.537Z,94.35
2018-08-06T06:25:02.588Z,95.03
2018-08-06T06:26:02.611Z,95.60
2018-08-06T06:27:02.662Z,95.79
2018-08-06T06:28:02.694Z,96.85
2018-08-06T06:29:02.733Z,96.80
2018-08-06T06:30:02.772Z,96.42
2018-08-06T06:31:02.809Z,96.99
2018-08-06T06:32:02.849Z,96.94
2018-08-06T06:33:02.890Z,97.62
2018-08-06T06:34:02.930Z,97.14
2018-08-06T06:35:02.967Z,98.14
2018-08-06T06:36:03.006Z,98.34
2018-08-06T06:37:03.044Z,98.82
2018-08-06T06:38:03.085Z,98.49
2018-08-06T06:39:03.126Z,98.96
2018-08-06T06:40:03.164Z,99.26
2018-08-06T06:41:03.203Z,99.35
2018-08-06T06:42:03.245Z,99.69
2018-08-06T06:43:03.290Z,99.30
2018-08-06T06:44:03.324Z,99.69
2018-08-06T06:45:03.422Z,99.44
2018-08-06T06:46:03.404Z,99.16
2018-08-06T06:47:03.447Z,99.54
2018-08-06T06:48:03.485Z,99.35
2018-08-06T06:49:03.645Z,99.44
2018-08-06T06:50:03.563Z,99.59
2018-08-06T06:51:03.605Z,99.50
2018-08-06T06:52:03.654Z,98.44
2018-08-06T06:53:03.686Z,98.34
2018-08-06T06:54:03.725Z,98.87
2018-08-06T06:55:03.765Z,99.26
2018-08-06T06:56:03.804Z,99.26
2018-08-06T06:57:03.849Z,99.26
2018-08-06T06:58:03.890Z,99.74
2018-08-06T06:59:03.929Z,99.99
2018-08-06T07:00:04.001Z,99.99
2018-08-06T07:01:04.020Z,99.99
2018-08-06T07:02:04.054Z,99.99
2018-08-06T07:03:04.102Z,99.99
2018-08-06T07:04:04.131Z,99.99
2018-08-06T07:05:04.166Z,99.74
2018-08-06T07:06:04.215Z,99.84
2018-08-06T07:07:04.251Z,99.06
2018-08-06T07:08:04.303Z,99.02
2018-08-06T07:09:04.330Z,98.63
2018-08-06T07:10:04.376Z,98.44
2018-08-06T07:11:04.414Z,98.82
2018-08-06T07:12:04.459Z,98.54
2018-08-06T07:13:04.518Z,98.44
2018-08-06T07:14:04.602Z,98.39
2018-08-06T07:15:04.578Z,98.44
2018-08-06T07:16:04.626Z,97.42
2018-08-06T07:17:04.682Z,97.38
2018-08-06T07:18:04.725Z,97.67
2018-08-06T07:19:04.738Z,97.47
2018-08-06T07:20:04.786Z,97.72
2018-08-06T07:21:04.819Z,97.38
2018-08-06T07:22:04.950Z,97.86
2018-08-06T07:23:04.900Z,97.47
2018-08-06T07:24:04.940Z,97.72
2018-08-06T07:25:04.982Z,97.19
2018-08-06T07:26:05.144Z,97.67
2018-08-06T07:27:05.066Z,97.52
2018-08-06T07:28:05.108Z,97.52
2018-08-06T07:29:05.145Z,97.81
2018-08-06T07:30:05.186Z,97.62
2018-08-06T07:31:05.227Z,97.42
2018-08-06T07:32:05.271Z,97.14
2018-08-06T07:33:05.310Z,96.37
2018-08-06T07:34:05.351Z,96.17
2018-08-06T07:35:05.393Z,97.04
2018-08-06T07:36:05.432Z,96.61
2018-08-06T07:37:05.474Z,96.46
2018-08-06T07:38:05.518Z,96.51
2018-08-06T07:39:05.563Z,96.70
2018-08-06T07:40:05.658Z,96.22
2018-08-06T07:41:05.640Z,96.61
2018-08-06T07:42:05.677Z,95.26
2018-08-06T07:43:05.746Z,95.64
2018-08-06T07:44:05.761Z,95.16
2018-08-06T07:45:05.801Z,94.48
2018-08-06T07:46:05.849Z,93.85
2018-08-06T07:47:05.903Z,93.57
2018-08-06T07:48:05.968Z,93.37
2018-08-06T07:49:05.973Z,92.32
2018-08-06T07:50:06.006Z,92.32
2018-08-06T07:51:06.052Z,92.50
2018-08-06T07:52:06.091Z,92.50
2018-08-06T07:53:06.130Z,91.83
2018-08-06T07:54:06.182Z,92.07
2018-08-06T07:55:06.213Z,90.91
2018-08-06T07:56:06.270Z,90.43
2018-08-06T07:57:06.299Z,89.47
2018-08-06T07:58:06.348Z,89.56
2018-08-06T07:59:06.380Z,88.40
2018-08-06T08:00:06.419Z,88.21
2018-08-06T08:01:06.464Z,87.67
2018-08-06T08:02:06.506Z,87.09
2018-08-06T08:03:06.544Z,87.67
2018-08-06T08:04:06.586Z,89.61
2018-08-06T08:05:06.626Z,90.19
2018-08-06T08:06:06.667Z,87.58
2018-08-06T08:07:06.707Z,87.23
2018-08-06T08:08:06.750Z,87.52
2018-08-06T08:09:06.791Z,85.59
2018-08-06T08:10:06.831Z,85.69
2018-08-06T08:11:06.873Z,82.89
2018-08-06T08:12:06.917Z,82.21
2018-08-06T08:13:06.956Z,82.89
2018-08-06T08:14:07.003Z,82.79
2018-08-06T08:15:07.041Z,81.82
2018-08-06T08:16:07.084Z,82.15
2018-08-06T08:17:07.123Z,80.80
2018-08-06T08:18:07.174Z,81.09
2018-08-06T08:19:07.211Z,80.12
2018-08-06T08:20:07.323Z,79.74
2018-08-06T08:21:07.289Z,80.12
2018-08-06T08:22:07.331Z,79.93
2018-08-06T08:23:07.374Z,80.12
2018-08-06T08:24:07.420Z,78.42
2018-08-06T08:25:07.459Z,78.23
2018-08-06T08:26:07.500Z,78.81
2018-08-06T08:27:07.541Z,78.03
2018-08-06T08:28:07.589Z,76.10
2018-08-06T08:29:07.623Z,74.40
2018-08-06T08:30:07.669Z,75.43
2018-08-06T08:31:07.710Z,77.98
2018-08-06T08:32:07.752Z,77.20
2018-08-06T08:33:07.791Z,75.75
2018-08-06T08:34:07.939Z,74.11
2018-08-06T08:35:07.877Z,76.72
2018-08-06T08:36:07.919Z,74.21
2018-08-06T08:37:07.963Z,73.27
2018-08-06T08:38:08.002Z,71.14
2018-08-06T08:39:08.048Z,71.53
2018-08-06T08:40:08.097Z,73.08
2018-08-06T08:41:08.150Z,73.27
2018-08-06T08:42:08.171Z,70.56
2018-08-06T08:43:08.215Z,69.79
2018-08-06T08:44:08.259Z,69.98
2018-08-06T08:45:08.302Z,70.66
2018-08-06T08:46:08.347Z,69.89
2018-08-06T08:47:08.382Z,69.98
2018-08-06T08:48:08.424Z,69.63
2018-08-06T08:49:08.463Z,69.53
2018-08-06T08:50:08.515Z,70.40
2018-08-06T08:51:08.561Z,69.89
2018-08-06T08:52:08.598Z,69.43
2018-08-06T08:53:08.637Z,68.76
2018-08-06T08:54:08.676Z,67.69
2018-08-06T08:55:08.758Z,67.30
2018-08-06T08:56:08.762Z,67.02
2018-08-06T08:57:08.804Z,65.85
2018-08-06T08:58:08.861Z,67.40
2018-08-06T08:59:08.887Z,65.75
2018-08-06T09:00:08.933Z,65.17
2018-08-06T09:01:08.977Z,65.47
2018-08-06T09:02:09.020Z,64.50
2018-08-06T09:03:09.089Z,63.17
2018-08-06T09:04:09.101Z,62.69
2018-08-06T09:05:09.143Z,63.46
2018-08-06T09:06:09.187Z,62.40
2018-08-06T09:07:09.230Z,62.79
2018-08-06T09:08:09.270Z,62.79
2018-08-06T09:09:09.318Z,63.85
2018-08-06T09:10:09.355Z,63.46
2018-08-06T09:11:09.406Z,63.69
2018-08-06T09:12:09.440Z,61.33
2018-08-06T09:13:09.481Z,61.14
2018-08-06T09:14:09.616Z,61.33
2018-08-06T09:15:09.567Z,61.55
2018-08-06T09:16:09.635Z,61.46
2018-08-06T09:17:09.651Z,62.52
2018-08-06T09:18:09.695Z,61.55
2018-08-06T09:19:09.738Z,62.33
2018-08-06T09:20:09.781Z,61.46
2018-08-06T09:21:09.864Z,60.20
2018-08-06T09:22:09.868Z,61.65
2018-08-06T09:23:09.908Z,61.94
2018-08-06T09:24:09.955Z,62.13
2018-08-06T09:25:10.000Z,61.46
2018-08-06T09:26:10.035Z,61.36
2018-08-06T09:27:10.081Z,61.49
2018-08-06T09:28:10.126Z,61.39
2018-08-06T09:29:10.163Z,59.64
2018-08-06T09:30:10.218Z,62.16
2018-08-06T09:31:10.249Z,60.25
2018-08-06T09:32:10.293Z,59.87
2018-08-06T09:33:10.333Z,59.48
2018-08-06T09:34:10.385Z,59.67
2018-08-06T09:35:10.420Z,58.61
2018-08-06T09:36:10.462Z,59.09
2018-08-06T09:37:10.504Z,58.51
2018-08-06T09:38:10.548Z,57.54
2018-08-06T09:39:10.591Z,58.61
2018-08-06T09:40:10.642Z,58.22
2018-08-06T09:41:10.676Z,58.70
2018-08-06T09:42:10.718Z,58.80
2018-08-06T09:43:10.774Z,58.41
2018-08-06T09:44:10.814Z,59.38
2018-08-06T09:45:10.850Z,58.51
2018-08-06T09:46:10.899Z,58.80
2018-08-06T09:47:10.936Z,58.70
2018-08-06T09:48:10.979Z,57.67
2018-08-06T09:49:11.021Z,57.67
2018-08-06T09:50:11.067Z,57.96
2018-08-06T09:51:11.108Z,57.08
2018-08-06T09:52:11.160Z,57.08
2018-08-06T09:53:11.198Z,55.92
2018-08-06T09:54:11.246Z,56.01
2018-08-06T09:55:11.282Z,56.30
2018-08-06T09:56:11.323Z,56.72
2018-08-06T09:57:11.419Z,56.14
2018-08-06T09:58:11.409Z,56.34
2018-08-06T09:59:11.452Z,56.04
2018-08-06T10:00:11.500Z,54.68
2018-08-06T10:01:11.539Z,54.49
2018-08-06T10:02:11.581Z,55.82
2018-08-06T10:03:11.642Z,54.94
2018-08-06T10:04:11.674Z,55.73
2018-08-06T10:05:11.712Z,54.88
2018-08-06T10:06:11.813Z,54.97
2018-08-06T10:07:11.799Z,54.94
2018-08-06T10:08:11.842Z,54.97
2018-08-06T10:09:11.885Z,54.88
2018-08-06T10:10:11.928Z,53.78
2018-08-06T10:11:11.973Z,54.85
2018-08-06T10:12:12.015Z,54.27
2018-08-06T10:13:12.059Z,54.27
2018-08-06T10:14:12.101Z,55.24
2018-08-06T10:15:12.154Z,54.94
2018-08-06T10:16:12.188Z,53.97
2018-08-06T10:17:12.230Z,53.97
2018-08-06T10:18:12.274Z,54.00
2018-08-06T10:19:12.431Z,54.29
2018-08-06T10:20:12.368Z,53.81
2018-08-06T10:21:12.440Z,53.81
2018-08-06T10:22:12.447Z,53.32
2018-08-06T10:23:12.492Z,54.10
2018-08-06T10:24:12.536Z,53.83
2018-08-06T10:25:12.576Z,52.47
2018-08-06T10:26:12.621Z,50.73
2018-08-06T10:27:12.671Z,50.24
2018-08-06T10:28:12.706Z,50.73
2018-08-06T10:29:12.757Z,49.56
2018-08-06T10:30:12.920Z,50.04
2018-08-06T10:31:12.846Z,50.43
2018-08-06T10:32:12.881Z,50.43
2018-08-06T10:33:12.925Z,49.56
2018-08-06T10:34:12.970Z,48.58
2018-08-06T10:35:13.013Z,48.68
2018-08-06T10:36:13.056Z,48.58
2018-08-06T10:37:13.099Z,49.76
2018-08-06T10:38:13.144Z,50.60
2018-08-06T10:39:13.188Z,51.21
2018-08-06T10:40:13.251Z,50.92
2018-08-06T10:41:13.287Z,49.85
2018-08-06T10:42:13.319Z,48.78
2018-08-06T10:43:13.360Z,50.43
2018-08-06T10:44:13.411Z,50.34
2018-08-06T10:45:13.455Z,49.49
2018-08-06T10:46:13.493Z,48.80
2018-08-06T10:47:13.545Z,48.49
2018-08-06T10:48:13.614Z,48.41
2018-08-06T10:49:13.628Z,47.74
2018-08-06T10:50:13.669Z,47.83
2018-08-06T10:51:13.711Z,48.10
2018-08-06T10:52:13.756Z,48.88
2018-08-06T10:53:13.801Z,48.88
2018-08-06T10:54:13.848Z,48.58
2018-08-06T10:55:13.884Z,48.39
2018-08-06T10:56:13.927Z,49.78
2018-08-06T10:57:13.972Z,48.51
2018-08-06T10:58:14.017Z,47.44
2018-08-06T10:59:14.059Z,47.37
2018-08-06T11:00:14.107Z,46.40
2018-08-06T11:01:14.146Z,45.52
2018-08-06T11:02:14.192Z,45.52
2018-08-06T11:03:14.235Z,45.42
2018-08-06T11:04:14.281Z,45.32
2018-08-06T11:05:14.322Z,44.74
2018-08-06T11:06:14.365Z,44.65
2018-08-06T11:07:14.409Z,46.30
2018-08-06T11:08:14.464Z,45.14
2018-08-06T11:09:14.498Z,45.52
2018-08-06T11:10:14.546Z,45.81
2018-08-06T11:11:14.593Z,46.78
2018-08-06T11:12:14.631Z,46.01
2018-08-06T11:13:14.674Z,43.77
2018-08-06T11:14:14.763Z,44.06
2018-08-06T11:15:14.768Z,43.77
2018-08-06T11:16:14.806Z,43.38
2018-08-06T11:17:14.849Z,43.67
2018-08-06T11:18:14.896Z,44.06
2018-08-06T11:19:14.935Z,45.35
2018-08-06T11:20:14.979Z,44.57
2018-08-06T11:21:15.026Z,43.60
2018-08-06T11:22:15.068Z,44.28
2018-08-06T11:23:15.111Z,44.59
2018-08-06T11:24:15.157Z,44.01
2018-08-06T11:25:15.199Z,43.71
2018-08-06T11:26:15.243Z,43.33
2018-08-06T11:27:15.287Z,43.62
2018-08-06T11:28:15.331Z,42.94
2018-08-06T11:29:15.375Z,43.93
2018-08-06T11:30:15.418Z,43.25
2018-08-06T11:31:15.463Z,42.65
2018-08-06T11:32:15.513Z,42.96
2018-08-06T11:33:15.550Z,42.74
2018-08-06T11:34:15.609Z,42.65
2018-08-06T11:35:15.640Z,42.84
2018-08-06T11:36:15.686Z,42.94
2018-08-06T11:37:15.726Z,42.74
2018-08-06T11:38:15.779Z,42.82
2018-08-06T11:39:15.816Z,42.55
2018-08-06T11:40:15.861Z,43.30
2018-08-06T11:41:15.909Z,43.50
2018-08-06T11:42:15.948Z,43.33
2018-08-06T11:43:15.993Z,43.81
2018-08-06T11:44:16.038Z,43.33
2018-08-06T11:45:16.083Z,42.74
2018-08-06T11:46:16.136Z,42.66
2018-08-06T11:47:16.171Z,41.77
2018-08-06T11:48:16.215Z,42.86
2018-08-06T11:49:16.258Z,42.38
2018-08-06T11:50:16.306Z,41.99
2018-08-06T11:51:16.347Z,41.69
2018-08-06T11:52:16.393Z,41.50
2018-08-06T11:53:16.434Z,42.38
2018-08-06T11:54:16.479Z,41.50
2018-08-06T11:55:16.525Z,41.20
2018-08-06T11:56:16.567Z,41.89
2018-08-06T11:57:16.617Z,41.42
2018-08-06T11:58:16.656Z,40.83
2018-08-06T11:59:16.703Z,41.32
2018-08-06T12:00:16.750Z,40.93
2018-08-06T12:01:16.789Z,41.61
2018-08-06T12:02:16.832Z,42.59
2018-08-06T12:03:16.877Z,41.42
2018-08-06T12:04:16.924Z,41.91
2018-08-06T12:05:16.967Z,41.22
2018-08-06T12:06:17.012Z,41.32
2018-08-06T12:07:17.056Z,41.13
2018-08-06T12:08:17.100Z,41.32
2018-08-06T12:09:17.153Z,40.73
2018-08-06T12:10:17.198Z,40.56
2018-08-06T12:11:17.235Z,40.47
2018-08-06T12:12:17.280Z,41.25
2018-08-06T12:13:17.323Z,40.37
2018-08-06T12:14:17.367Z,39.88
2018-08-06T12:15:17.505Z,40.76
2018-08-06T12:16:17.457Z,41.05
2018-08-06T12:17:17.501Z,39.59
2018-08-06T12:18:17.557Z,39.78
2018-08-06T12:19:17.590Z,39.10
2018-08-06T12:20:17.693Z,39.57
2018-08-06T12:21:17.680Z,40.45
2018-08-06T12:22:17.724Z,40.95
2018-08-06T12:23:17.769Z,39.78
2018-08-06T12:24:17.814Z,40.27
2018-08-06T12:25:17.875Z,39.69
2018-08-06T12:26:17.923Z,39.49
2018-08-06T12:27:17.974Z,40.17
2018-08-06T12:28:17.992Z,40.17
2018-08-06T12:29:18.039Z,40.88
2018-08-06T12:30:18.082Z,39.90
2018-08-06T12:31:18.134Z,39.51
2018-08-06T12:32:18.172Z,40.58
2018-08-06T12:33:18.264Z,39.61
2018-08-06T12:34:18.260Z,39.51
2018-08-06T12:35:18.306Z,39.22
2018-08-06T12:36:18.353Z,39.02
2018-08-06T12:37:18.498Z,38.35
2018-08-06T12:38:18.552Z,39.14
2018-08-06T12:39:18.486Z,38.26
2018-08-06T12:40:18.532Z,38.38
2018-08-06T12:41:18.573Z,39.45
2018-08-06T12:42:18.618Z,37.79
2018-08-06T12:43:18.664Z,38.87
2018-08-06T12:44:18.785Z,38.18
2018-08-06T12:45:18.753Z,38.67
2018-08-06T12:46:18.867Z,37.79
2018-08-06T12:47:18.844Z,37.21
2018-08-06T12:48:18.889Z,36.91
2018-08-06T12:49:18.932Z,36.91
2018-08-06T12:50:18.986Z,36.62
2018-08-06T12:51:19.024Z,36.33
2018-08-06T12:52:19.082Z,37.50
2018-08-06T12:53:19.113Z,37.40